sensor_id;sensor_type;location;lat;lon;timestamp;temperature;humidity
40852;DHT22;26574;52.486;13.348;2022-09-29T00:01:52;22.30;64.90
40852;DHT22;26574;52.486;13.348;2022-09-29T00:04:17;22.30;65.00
40852;DHT22;26574;52.486;13.348;2022-09-29T00:06:43;22.30;65.00
40852;DHT22;26574;52.486;13.348;2022-09-29T00:09:09;22.30;65.00
40852;DHT22;26574;52.486;13.348;2022-09-29T00:11:34;22.30;65.00
40852;DHT22;26574;52.486;13.348;2022-09-29T00:14:00;22.30;64.90
40852;DHT22;26574;52.486;13.348;2022-09-29T00:16:25;22.30;64.90
40852;DHT22;26574;52.486;13.348;2022-09-29T00:18:54;22.30;64.90
40852;DHT22;26574;52.486;13.348;2022-09-29T00:21:20;22.30;65.00
40852;DHT22;26574;52.486;13.348;2022-09-29T00:23:46;22.30;64.90
40852;DHT22;26574;52.486;13.348;2022-09-29T00:26:13;22.30;64.80
40852;DHT22;26574;52.486;13.348;2022-09-29T00:28:40;22.30;64.80
40852;DHT22;26574;52.486;13.348;2022-09-29T00:31:06;22.30;64.90
40852;DHT22;26574;52.486;13.348;2022-09-29T00:33:33;22.30;64.90
40852;DHT22;26574;52.486;13.348;2022-09-29T00:36:03;22.30;64.90
40852;DHT22;26574;52.486;13.348;2022-09-29T00:38:30;22.30;64.90
40852;DHT22;26574;52.486;13.348;2022-09-29T00:40:56;22.30;64.80
40852;DHT22;26574;52.486;13.348;2022-09-29T00:46:06;22.30;64.90
40852;DHT22;26574;52.486;13.348;2022-09-29T00:48:32;22.30;64.90
40852;DHT22;26574;52.486;13.348;2022-09-29T00:50:57;22.30;64.90
40852;DHT22;26574;52.486;13.348;2022-09-29T00:53:23;22.30;64.90
40852;DHT22;26574;52.486;13.348;2022-09-29T00:55:55;22.30;64.80
40852;DHT22;26574;52.486;13.348;2022-09-29T01:00:49;22.30;64.70
40852;DHT22;26574;52.486;13.348;2022-09-29T01:03:15;22.30;64.70
40852;DHT22;26574;52.486;13.348;2022-09-29T01:05:43;22.30;65.40
40852;DHT22;26574;52.486;13.348;2022-09-29T01:08:33;22.30;64.70
40852;DHT22;26574;52.486;13.348;2022-09-29T01:10:57;22.30;64.80
40852;DHT22;26574;52.486;13.348;2022-09-29T01:13:24;22.30;64.80
40852;DHT22;26574;52.486;13.348;2022-09-29T01:15:49;22.30;64.80
40852;DHT22;26574;52.486;13.348;2022-09-29T01:18:15;22.30;64.70
40852;DHT22;26574;52.486;13.348;2022-09-29T01:47:53;22.30;64.60
40852;DHT22;26574;52.486;13.348;2022-09-29T01:50:21;22.30;64.60
40852;DHT22;26574;52.486;13.348;2022-09-29T01:52:50;22.30;64.70
40852;DHT22;26574;52.486;13.348;2022-09-29T01:55:18;22.30;64.60
40852;DHT22;26574;52.486;13.348;2022-09-29T01:57:46;22.30;64.60
40852;DHT22;26574;52.486;13.348;2022-09-29T02:00:13;22.30;64.50
40852;DHT22;26574;52.486;13.348;2022-09-29T02:03:04;22.30;64.40
40852;DHT22;26574;52.486;13.348;2022-09-29T02:05:35;22.30;64.50
40852;DHT22;26574;52.486;13.348;2022-09-29T02:08:08;22.30;64.50
40852;DHT22;26574;52.486;13.348;2022-09-29T02:10:36;22.20;64.60
40852;DHT22;26574;52.486;13.348;2022-09-29T02:13:04;22.30;64.60
40852;DHT22;26574;52.486;13.348;2022-09-29T02:15:32;22.30;64.50
40852;DHT22;26574;52.486;13.348;2022-09-29T02:18:00;22.30;64.40
40852;DHT22;26574;52.486;13.348;2022-09-29T02:20:27;22.30;65.00
40852;DHT22;26574;52.486;13.348;2022-09-29T02:22:54;22.30;64.30
40852;DHT22;26574;52.486;13.348;2022-09-29T02:25:20;22.30;64.30
40852;DHT22;26574;52.486;13.348;2022-09-29T02:27:46;22.30;64.30
40852;DHT22;26574;52.486;13.348;2022-09-29T02:30:12;22.30;64.20
40852;DHT22;26574;52.486;13.348;2022-09-29T02:32:38;22.20;64.40
40852;DHT22;26574;52.486;13.348;2022-09-29T02:35:04;22.20;64.20
40852;DHT22;26574;52.486;13.348;2022-09-29T02:37:34;22.20;64.40
40852;DHT22;26574;52.486;13.348;2022-09-29T02:50:18;22.20;64.20
40852;DHT22;26574;52.486;13.348;2022-09-29T02:52:59;22.30;64.40
40852;DHT22;26574;52.486;13.348;2022-09-29T02:58:07;22.20;64.20
40852;DHT22;26574;52.486;13.348;2022-09-29T03:00:34;22.20;64.20
40852;DHT22;26574;52.486;13.348;2022-09-29T03:03:00;22.20;64.10
40852;DHT22;26574;52.486;13.348;2022-09-29T03:05:26;22.30;64.00
40852;DHT22;26574;52.486;13.348;2022-09-29T03:07:51;22.20;64.20
40852;DHT22;26574;52.486;13.348;2022-09-29T03:10:17;22.20;64.10
40852;DHT22;26574;52.486;13.348;2022-09-29T03:12:43;22.20;64.10
40852;DHT22;26574;52.486;13.348;2022-09-29T03:15:09;22.20;64.00
40852;DHT22;26574;52.486;13.348;2022-09-29T03:17:37;22.20;64.10
40852;DHT22;26574;52.486;13.348;2022-09-29T03:20:02;22.20;64.10
40852;DHT22;26574;52.486;13.348;2022-09-29T03:22:29;22.20;64.00
40852;DHT22;26574;52.486;13.348;2022-09-29T03:24:54;22.20;63.90
40852;DHT22;26574;52.486;13.348;2022-09-29T03:27:20;22.20;64.00
40852;DHT22;26574;52.486;13.348;2022-09-29T03:29:45;22.20;63.90
40852;DHT22;26574;52.486;13.348;2022-09-29T03:32:11;22.20;63.80
40852;DHT22;26574;52.486;13.348;2022-09-29T03:34:37;22.20;63.80
40852;DHT22;26574;52.486;13.348;2022-09-29T03:37:02;22.20;63.90
40852;DHT22;26574;52.486;13.348;2022-09-29T03:39:28;22.20;63.90
40852;DHT22;26574;52.486;13.348;2022-09-29T03:41:54;22.20;63.80
40852;DHT22;26574;52.486;13.348;2022-09-29T03:44:20;22.20;63.80
40852;DHT22;26574;52.486;13.348;2022-09-29T03:46:45;22.20;64.00
40852;DHT22;26574;52.486;13.348;2022-09-29T03:49:12;22.20;63.70
40852;DHT22;26574;52.486;13.348;2022-09-29T03:51:38;22.20;63.80
40852;DHT22;26574;52.486;13.348;2022-09-29T03:54:04;22.20;63.80
40852;DHT22;26574;52.486;13.348;2022-09-29T03:56:29;22.20;63.80
40852;DHT22;26574;52.486;13.348;2022-09-29T03:58:55;22.20;63.80
40852;DHT22;26574;52.486;13.348;2022-09-29T04:01:21;22.20;63.90
40852;DHT22;26574;52.486;13.348;2022-09-29T04:03:46;22.20;63.90
40852;DHT22;26574;52.486;13.348;2022-09-29T04:06:12;22.20;63.90
40852;DHT22;26574;52.486;13.348;2022-09-29T04:08:38;22.20;63.70
40852;DHT22;26574;52.486;13.348;2022-09-29T04:11:04;22.20;63.80
40852;DHT22;26574;52.486;13.348;2022-09-29T04:13:30;22.20;63.90
40852;DHT22;26574;52.486;13.348;2022-09-29T04:15:59;22.20;63.80
40852;DHT22;26574;52.486;13.348;2022-09-29T04:18:25;22.20;63.70
40852;DHT22;26574;52.486;13.348;2022-09-29T04:20:51;22.20;63.70
40852;DHT22;26574;52.486;13.348;2022-09-29T04:23:16;22.20;63.70
40852;DHT22;26574;52.486;13.348;2022-09-29T04:25:45;22.20;63.80
40852;DHT22;26574;52.486;13.348;2022-09-29T04:28:11;22.20;64.30
40852;DHT22;26574;52.486;13.348;2022-09-29T04:30:36;22.20;63.70
40852;DHT22;26574;52.486;13.348;2022-09-29T04:33:02;22.20;63.80
40852;DHT22;26574;52.486;13.348;2022-09-29T04:35:28;22.20;63.70
40852;DHT22;26574;52.486;13.348;2022-09-29T04:37:56;22.10;63.60
40852;DHT22;26574;52.486;13.348;2022-09-29T04:40:23;22.20;63.70
40852;DHT22;26574;52.486;13.348;2022-09-29T04:42:48;22.20;63.80
40852;DHT22;26574;52.486;13.348;2022-09-29T04:45:14;22.20;63.60
40852;DHT22;26574;52.486;13.348;2022-09-29T04:47:40;22.20;63.60
40852;DHT22;26574;52.486;13.348;2022-09-29T04:50:06;22.20;63.70
40852;DHT22;26574;52.486;13.348;2022-09-29T04:52:32;22.20;63.30
40852;DHT22;26574;52.486;13.348;2022-09-29T04:54:57;22.20;63.30
40852;DHT22;26574;52.486;13.348;2022-09-29T04:57:23;22.20;63.40
40852;DHT22;26574;52.486;13.348;2022-09-29T04:59:48;22.20;63.40
40852;DHT22;26574;52.486;13.348;2022-09-29T05:02:18;22.20;63.40
40852;DHT22;26574;52.486;13.348;2022-09-29T05:04:44;22.20;63.20
40852;DHT22;26574;52.486;13.348;2022-09-29T05:07:10;22.20;63.30
40852;DHT22;26574;52.486;13.348;2022-09-29T05:09:35;22.20;63.40
40852;DHT22;26574;52.486;13.348;2022-09-29T05:12:01;22.20;63.30
40852;DHT22;26574;52.486;13.348;2022-09-29T05:14:27;22.20;63.50
40852;DHT22;26574;52.486;13.348;2022-09-29T05:16:53;22.20;63.40
40852;DHT22;26574;52.486;13.348;2022-09-29T05:19:19;22.20;63.40
40852;DHT22;26574;52.486;13.348;2022-09-29T05:21:44;22.20;63.40
40852;DHT22;26574;52.486;13.348;2022-09-29T05:24:11;22.20;63.40
40852;DHT22;26574;52.486;13.348;2022-09-29T05:26:36;22.20;63.20
40852;DHT22;26574;52.486;13.348;2022-09-29T05:29:02;22.20;63.30
40852;DHT22;26574;52.486;13.348;2022-09-29T05:31:28;22.20;63.50
40852;DHT22;26574;52.486;13.348;2022-09-29T05:33:56;22.20;63.50
40852;DHT22;26574;52.486;13.348;2022-09-29T05:36:22;22.20;63.40
40852;DHT22;26574;52.486;13.348;2022-09-29T05:38:48;22.20;63.50
40852;DHT22;26574;52.486;13.348;2022-09-29T05:41:13;22.20;63.30
40852;DHT22;26574;52.486;13.348;2022-09-29T05:43:47;22.20;63.20
40852;DHT22;26574;52.486;13.348;2022-09-29T05:46:13;22.20;63.40
40852;DHT22;26574;52.486;13.348;2022-09-29T05:48:40;22.20;63.20
40852;DHT22;26574;52.486;13.348;2022-09-29T05:51:07;22.20;63.20
40852;DHT22;26574;52.486;13.348;2022-09-29T05:53:33;22.20;63.10
40852;DHT22;26574;52.486;13.348;2022-09-29T05:56:03;22.20;63.10
40852;DHT22;26574;52.486;13.348;2022-09-29T05:58:28;22.20;63.30
40852;DHT22;26574;52.486;13.348;2022-09-29T06:00:54;22.30;63.20
40852;DHT22;26574;52.486;13.348;2022-09-29T06:03:19;22.20;63.10
40852;DHT22;26574;52.486;13.348;2022-09-29T06:05:45;22.20;63.20
40852;DHT22;26574;52.486;13.348;2022-09-29T06:08:11;22.20;63.10
40852;DHT22;26574;52.486;13.348;2022-09-29T06:10:36;22.20;63.10
40852;DHT22;26574;52.486;13.348;2022-09-29T06:13:02;22.30;63.10
40852;DHT22;26574;52.486;13.348;2022-09-29T06:15:28;22.30;63.10
40852;DHT22;26574;52.486;13.348;2022-09-29T06:17:54;22.20;62.90
40852;DHT22;26574;52.486;13.348;2022-09-29T06:20:20;22.30;63.10
40852;DHT22;26574;52.486;13.348;2022-09-29T06:22:45;22.30;62.90
40852;DHT22;26574;52.486;13.348;2022-09-29T06:25:12;22.30;62.80
40852;DHT22;26574;52.486;13.348;2022-09-29T06:27:37;22.30;62.70
40852;DHT22;26574;52.486;13.348;2022-09-29T06:30:03;22.30;62.80
40852;DHT22;26574;52.486;13.348;2022-09-29T06:32:29;22.30;62.60
40852;DHT22;26574;52.486;13.348;2022-09-29T06:34:54;22.30;62.80
40852;DHT22;26574;52.486;13.348;2022-09-29T06:37:39;22.40;62.70
40852;DHT22;26574;52.486;13.348;2022-09-29T06:40:10;22.40;62.80
40852;DHT22;26574;52.486;13.348;2022-09-29T06:42:36;22.40;62.60
40852;DHT22;26574;52.486;13.348;2022-09-29T06:45:03;22.40;62.60
40852;DHT22;26574;52.486;13.348;2022-09-29T06:47:29;22.40;62.20
40852;DHT22;26574;52.486;13.348;2022-09-29T06:49:54;22.40;62.40
40852;DHT22;26574;52.486;13.348;2022-09-29T06:52:20;22.40;62.40
40852;DHT22;26574;52.486;13.348;2022-09-29T06:54:45;22.20;60.60
40852;DHT22;26574;52.486;13.348;2022-09-29T06:57:11;22.30;61.50
40852;DHT22;26574;52.486;13.348;2022-09-29T06:59:38;22.40;61.60
40852;DHT22;26574;52.486;13.348;2022-09-29T07:02:03;22.30;60.40
40852;DHT22;26574;52.486;13.348;2022-09-29T07:04:29;22.40;61.70
40852;DHT22;26574;52.486;13.348;2022-09-29T07:06:55;22.40;61.10
40852;DHT22;26574;52.486;13.348;2022-09-29T07:09:20;22.30;60.00
40852;DHT22;26574;52.486;13.348;2022-09-29T07:11:48;22.30;61.20
40852;DHT22;26574;52.486;13.348;2022-09-29T07:14:15;22.30;61.70
40852;DHT22;26574;52.486;13.348;2022-09-29T07:16:41;22.40;61.60
40852;DHT22;26574;52.486;13.348;2022-09-29T07:19:06;22.40;61.70
40852;DHT22;26574;52.486;13.348;2022-09-29T07:21:32;22.40;61.60
40852;DHT22;26574;52.486;13.348;2022-09-29T07:23:59;22.40;61.70
40852;DHT22;26574;52.486;13.348;2022-09-29T07:26:24;22.40;61.70
40852;DHT22;26574;52.486;13.348;2022-09-29T07:28:50;22.40;62.50
40852;DHT22;26574;52.486;13.348;2022-09-29T07:31:17;22.40;61.60
40852;DHT22;26574;52.486;13.348;2022-09-29T07:33:43;22.40;61.80
40852;DHT22;26574;52.486;13.348;2022-09-29T07:36:09;22.40;61.80
40852;DHT22;26574;52.486;13.348;2022-09-29T07:38:35;22.40;61.80
40852;DHT22;26574;52.486;13.348;2022-09-29T07:41:05;22.40;61.80
40852;DHT22;26574;52.486;13.348;2022-09-29T07:43:32;22.40;61.80
40852;DHT22;26574;52.486;13.348;2022-09-29T07:45:57;22.40;61.90
40852;DHT22;26574;52.486;13.348;2022-09-29T07:48:25;22.50;61.90
40852;DHT22;26574;52.486;13.348;2022-09-29T07:50:50;22.50;62.00
40852;DHT22;26574;52.486;13.348;2022-09-29T07:53:17;22.50;61.90
40852;DHT22;26574;52.486;13.348;2022-09-29T07:55:43;22.50;62.10
40852;DHT22;26574;52.486;13.348;2022-09-29T07:58:08;22.50;62.10
40852;DHT22;26574;52.486;13.348;2022-09-29T08:00:34;22.50;61.90
40852;DHT22;26574;52.486;13.348;2022-09-29T08:03:04;22.50;62.90
40852;DHT22;26574;52.486;13.348;2022-09-29T08:05:31;22.50;62.80
40852;DHT22;26574;52.486;13.348;2022-09-29T08:07:58;22.40;63.30
40852;DHT22;26574;52.486;13.348;2022-09-29T08:10:25;22.40;62.40
40852;DHT22;26574;52.486;13.348;2022-09-29T08:12:51;22.30;59.70
40852;DHT22;26574;52.486;13.348;2022-09-29T08:15:17;22.30;65.40
40852;DHT22;26574;52.486;13.348;2022-09-29T08:17:43;22.30;62.00
40852;DHT22;26574;52.486;13.348;2022-09-29T08:20:08;22.20;59.40
40852;DHT22;26574;52.486;13.348;2022-09-29T08:22:34;22.20;63.90
40852;DHT22;26574;52.486;13.348;2022-09-29T08:25:00;22.20;61.70
40852;DHT22;26574;52.486;13.348;2022-09-29T08:27:25;22.20;61.20
40852;DHT22;26574;52.486;13.348;2022-09-29T08:29:51;22.20;60.30
40852;DHT22;26574;52.486;13.348;2022-09-29T08:32:16;22.20;60.00
40852;DHT22;26574;52.486;13.348;2022-09-29T08:34:42;22.20;59.90
40852;DHT22;26574;52.486;13.348;2022-09-29T08:37:08;22.20;59.80
40852;DHT22;26574;52.486;13.348;2022-09-29T08:39:33;22.20;59.10
40852;DHT22;26574;52.486;13.348;2022-09-29T08:47:26;22.10;57.20
40852;DHT22;26574;52.486;13.348;2022-09-29T08:49:55;22.00;55.50
40852;DHT22;26574;52.486;13.348;2022-09-29T08:52:23;21.80;55.70
40852;DHT22;26574;52.486;13.348;2022-09-29T08:54:52;21.90;58.20
40852;DHT22;26574;52.486;13.348;2022-09-29T08:57:18;21.90;60.00
40852;DHT22;26574;52.486;13.348;2022-09-29T09:00:02;21.90;57.10
40852;DHT22;26574;52.486;13.348;2022-09-29T09:12:31;22.20;62.50
40852;DHT22;26574;52.486;13.348;2022-09-29T09:20:32;22.20;59.30
40852;DHT22;26574;52.486;13.348;2022-09-29T09:23:00;22.20;57.10
40852;DHT22;26574;52.486;13.348;2022-09-29T09:28:03;22.10;60.60
40852;DHT22;26574;52.486;13.348;2022-09-29T09:33:36;22.20;59.70
40852;DHT22;26574;52.486;13.348;2022-09-29T09:39:01;22.20;60.90
40852;DHT22;26574;52.486;13.348;2022-09-29T09:41:29;22.20;60.90
40852;DHT22;26574;52.486;13.348;2022-09-29T09:43:56;22.10;60.00
40852;DHT22;26574;52.486;13.348;2022-09-29T09:51:32;22.20;59.90
40852;DHT22;26574;52.486;13.348;2022-09-29T09:54:02;22.20;60.30
40852;DHT22;26574;52.486;13.348;2022-09-29T09:56:50;22.20;58.70
40852;DHT22;26574;52.486;13.348;2022-09-29T10:01:57;22.20;56.50
40852;DHT22;26574;52.486;13.348;2022-09-29T10:04:22;22.20;58.70
40852;DHT22;26574;52.486;13.348;2022-09-29T10:06:50;22.20;59.50
40852;DHT22;26574;52.486;13.348;2022-09-29T10:09:16;22.20;58.70
40852;DHT22;26574;52.486;13.348;2022-09-29T10:11:42;22.20;56.50
40852;DHT22;26574;52.486;13.348;2022-09-29T10:16:42;22.20;56.90
40852;DHT22;26574;52.486;13.348;2022-09-29T10:19:08;22.20;55.80
40852;DHT22;26574;52.486;13.348;2022-09-29T10:21:36;22.20;55.70
40852;DHT22;26574;52.486;13.348;2022-09-29T10:24:03;22.20;57.60
40852;DHT22;26574;52.486;13.348;2022-09-29T10:26:33;22.20;56.90
40852;DHT22;26574;52.486;13.348;2022-09-29T10:29:00;22.20;57.50
40852;DHT22;26574;52.486;13.348;2022-09-29T10:31:31;22.20;57.70
40852;DHT22;26574;52.486;13.348;2022-09-29T10:33:58;22.20;58.10
40852;DHT22;26574;52.486;13.348;2022-09-29T10:36:26;22.20;58.50
40852;DHT22;26574;52.486;13.348;2022-09-29T10:38:53;22.20;58.30
40852;DHT22;26574;52.486;13.348;2022-09-29T10:41:18;22.20;58.90
40852;DHT22;26574;52.486;13.348;2022-09-29T10:43:45;22.20;58.50
40852;DHT22;26574;52.486;13.348;2022-09-29T10:49:22;22.30;57.30
40852;DHT22;26574;52.486;13.348;2022-09-29T10:51:51;22.30;56.40
40852;DHT22;26574;52.486;13.348;2022-09-29T10:54:18;22.30;56.20
40852;DHT22;26574;52.486;13.348;2022-09-29T10:56:45;22.30;56.50
40852;DHT22;26574;52.486;13.348;2022-09-29T10:59:11;22.30;57.20
40852;DHT22;26574;52.486;13.348;2022-09-29T11:01:42;22.30;57.30
40852;DHT22;26574;52.486;13.348;2022-09-29T11:04:18;22.30;53.10
40852;DHT22;26574;52.486;13.348;2022-09-29T11:06:45;22.30;55.70
40852;DHT22;26574;52.486;13.348;2022-09-29T11:16:57;22.30;54.90
40852;DHT22;26574;52.486;13.348;2022-09-29T11:19:23;22.30;55.20
40852;DHT22;26574;52.486;13.348;2022-09-29T11:32:17;22.30;56.30
40852;DHT22;26574;52.486;13.348;2022-09-29T11:50:45;22.10;53.30
40852;DHT22;26574;52.486;13.348;2022-09-29T11:58:45;22.10;51.10
40852;DHT22;26574;52.486;13.348;2022-09-29T12:04:03;21.90;51.10
40852;DHT22;26574;52.486;13.348;2022-09-29T12:09:20;21.50;48.70
40852;DHT22;26574;52.486;13.348;2022-09-29T12:11:58;21.60;51.60
40852;DHT22;26574;52.486;13.348;2022-09-29T12:16:58;21.70;48.70
40852;DHT22;26574;52.486;13.348;2022-09-29T12:19:26;21.70;49.80
40852;DHT22;26574;52.486;13.348;2022-09-29T12:21:54;21.80;52.10
40852;DHT22;26574;52.486;13.348;2022-09-29T12:26:55;21.80;48.60
40852;DHT22;26574;52.486;13.348;2022-09-29T12:31:54;21.90;51.30
40852;DHT22;26574;52.486;13.348;2022-09-29T12:39:21;21.90;51.50
40852;DHT22;26574;52.486;13.348;2022-09-29T12:41:50;22.00;51.30
40852;DHT22;26574;52.486;13.348;2022-09-29T12:44:20;22.00;52.30
40852;DHT22;26574;52.486;13.348;2022-09-29T12:46:55;22.00;52.70
40852;DHT22;26574;52.486;13.348;2022-09-29T12:49:26;22.00;53.10
40852;DHT22;26574;52.486;13.348;2022-09-29T12:51:53;22.00;53.20
40852;DHT22;26574;52.486;13.348;2022-09-29T12:54:31;22.10;53.50
40852;DHT22;26574;52.486;13.348;2022-09-29T13:01:52;22.00;50.70
40852;DHT22;26574;52.486;13.348;2022-09-29T13:11:45;22.20;52.90
40852;DHT22;26574;52.486;13.348;2022-09-29T13:17:06;22.20;54.00
40852;DHT22;26574;52.486;13.348;2022-09-29T13:22:21;22.20;53.80
40852;DHT22;26574;52.486;13.348;2022-09-29T13:27:30;22.30;54.40
40852;DHT22;26574;52.486;13.348;2022-09-29T13:30:00;22.30;54.40
40852;DHT22;26574;52.486;13.348;2022-09-29T13:32:27;22.40;54.80
40852;DHT22;26574;52.486;13.348;2022-09-29T13:34:56;22.40;54.70
40852;DHT22;26574;52.486;13.348;2022-09-29T13:37:23;22.50;54.80
40852;DHT22;26574;52.486;13.348;2022-09-29T13:39:51;22.50;55.20
40852;DHT22;26574;52.486;13.348;2022-09-29T13:47:45;22.50;55.10
40852;DHT22;26574;52.486;13.348;2022-09-29T13:53:18;22.50;55.30
40852;DHT22;26574;52.486;13.348;2022-09-29T13:55:51;22.60;55.30
40852;DHT22;26574;52.486;13.348;2022-09-29T13:58:23;22.60;55.50
40852;DHT22;26574;52.486;13.348;2022-09-29T14:00:50;22.60;55.30
40852;DHT22;26574;52.486;13.348;2022-09-29T14:03:23;22.70;55.60
40852;DHT22;26574;52.486;13.348;2022-09-29T14:05:53;22.70;55.60
40852;DHT22;26574;52.486;13.348;2022-09-29T14:08:21;22.70;55.60
40852;DHT22;26574;52.486;13.348;2022-09-29T14:11:00;22.70;55.60
40852;DHT22;26574;52.486;13.348;2022-09-29T14:13:31;22.70;55.70
40852;DHT22;26574;52.486;13.348;2022-09-29T14:18:41;22.80;55.60
40852;DHT22;26574;52.486;13.348;2022-09-29T14:21:11;22.80;55.70
40852;DHT22;26574;52.486;13.348;2022-09-29T14:28:53;22.90;55.50
40852;DHT22;26574;52.486;13.348;2022-09-29T14:31:21;22.90;55.60
40852;DHT22;26574;52.486;13.348;2022-09-29T14:33:47;22.90;55.50
40852;DHT22;26574;52.486;13.348;2022-09-29T14:36:17;22.90;55.60
40852;DHT22;26574;52.486;13.348;2022-09-29T14:38:45;22.80;55.90
40852;DHT22;26574;52.486;13.348;2022-09-29T14:55:10;22.90;55.50
40852;DHT22;26574;52.486;13.348;2022-09-29T15:00:15;22.90;55.50
40852;DHT22;26574;52.486;13.348;2022-09-29T15:02:42;22.90;55.70
40852;DHT22;26574;52.486;13.348;2022-09-29T15:05:12;22.90;55.50
40852;DHT22;26574;52.486;13.348;2022-09-29T15:07:39;22.90;55.70
40852;DHT22;26574;52.486;13.348;2022-09-29T15:10:05;22.90;55.50
40852;DHT22;26574;52.486;13.348;2022-09-29T15:12:43;23.00;55.60
40852;DHT22;26574;52.486;13.348;2022-09-29T15:15:31;23.00;55.50
40852;DHT22;26574;52.486;13.348;2022-09-29T15:18:00;23.00;55.40
40852;DHT22;26574;52.486;13.348;2022-09-29T15:20:31;23.00;55.40
40852;DHT22;26574;52.486;13.348;2022-09-29T15:25:31;23.00;55.20
40852;DHT22;26574;52.486;13.348;2022-09-29T15:28:03;23.10;55.40
40852;DHT22;26574;52.486;13.348;2022-09-29T15:30:30;23.10;55.30
40852;DHT22;26574;52.486;13.348;2022-09-29T15:33:13;23.10;55.50
40852;DHT22;26574;52.486;13.348;2022-09-29T15:35:42;23.10;55.70
40852;DHT22;26574;52.486;13.348;2022-09-29T15:38:16;23.10;55.20
40852;DHT22;26574;52.486;13.348;2022-09-29T15:40:42;23.10;55.30
40852;DHT22;26574;52.486;13.348;2022-09-29T15:43:29;23.10;55.20
40852;DHT22;26574;52.486;13.348;2022-09-29T15:45:57;23.10;55.50
40852;DHT22;26574;52.486;13.348;2022-09-29T15:48:24;23.00;55.90
40852;DHT22;26574;52.486;13.348;2022-09-29T15:50:50;22.90;55.80
40852;DHT22;26574;52.486;13.348;2022-09-29T15:53:18;22.80;56.00
40852;DHT22;26574;52.486;13.348;2022-09-29T15:55:44;22.80;56.00
40852;DHT22;26574;52.486;13.348;2022-09-29T16:00:47;22.70;56.70
40852;DHT22;26574;52.486;13.348;2022-09-29T16:03:35;22.70;56.70
40852;DHT22;26574;52.486;13.348;2022-09-29T16:06:18;22.70;56.70
40852;DHT22;26574;52.486;13.348;2022-09-29T16:08:47;22.70;56.70
40852;DHT22;26574;52.486;13.348;2022-09-29T16:11:18;22.70;57.40
40852;DHT22;26574;52.486;13.348;2022-09-29T16:13:47;22.70;57.00
40852;DHT22;26574;52.486;13.348;2022-09-29T16:16:13;22.60;57.10
40852;DHT22;26574;52.486;13.348;2022-09-29T16:18:48;22.70;57.70
40852;DHT22;26574;52.486;13.348;2022-09-29T16:21:20;22.60;57.80
40852;DHT22;26574;52.486;13.348;2022-09-29T16:26:17;22.60;58.40
40852;DHT22;26574;52.486;13.348;2022-09-29T16:31:27;22.60;58.30
40852;DHT22;26574;52.486;13.348;2022-09-29T16:33:55;22.60;58.70
40852;DHT22;26574;52.486;13.348;2022-09-29T16:36:25;22.60;58.40
40852;DHT22;26574;52.486;13.348;2022-09-29T16:38:51;22.50;58.30
40852;DHT22;26574;52.486;13.348;2022-09-29T16:41:19;22.50;58.50
40852;DHT22;26574;52.486;13.348;2022-09-29T16:43:45;22.50;58.70
40852;DHT22;26574;52.486;13.348;2022-09-29T16:46:15;22.50;58.40
40852;DHT22;26574;52.486;13.348;2022-09-29T16:48:42;22.50;58.40
40852;DHT22;26574;52.486;13.348;2022-09-29T16:51:12;22.50;58.50
40852;DHT22;26574;52.486;13.348;2022-09-29T16:53:38;22.50;58.50
40852;DHT22;26574;52.486;13.348;2022-09-29T16:56:18;22.50;58.70
40852;DHT22;26574;52.486;13.348;2022-09-29T17:01:36;22.50;58.50
40852;DHT22;26574;52.486;13.348;2022-09-29T17:04:01;22.50;58.50
40852;DHT22;26574;52.486;13.348;2022-09-29T17:06:27;22.50;58.50
40852;DHT22;26574;52.486;13.348;2022-09-29T17:08:53;22.50;58.80
40852;DHT22;26574;52.486;13.348;2022-09-29T17:11:19;22.50;58.90
40852;DHT22;26574;52.486;13.348;2022-09-29T17:13:45;22.50;59.10
40852;DHT22;26574;52.486;13.348;2022-09-29T17:16:10;22.50;59.00
40852;DHT22;26574;52.486;13.348;2022-09-29T17:18:37;22.60;59.10
40852;DHT22;26574;52.486;13.348;2022-09-29T17:21:02;22.50;59.00
40852;DHT22;26574;52.486;13.348;2022-09-29T17:23:28;22.50;59.70
40852;DHT22;26574;52.486;13.348;2022-09-29T17:25:54;22.50;59.70
40852;DHT22;26574;52.486;13.348;2022-09-29T17:28:39;22.50;59.80
40852;DHT22;26574;52.486;13.348;2022-09-29T17:31:07;22.50;59.40
40852;DHT22;26574;52.486;13.348;2022-09-29T17:33:34;22.50;59.60
40852;DHT22;26574;52.486;13.348;2022-09-29T17:35:59;22.50;59.30
40852;DHT22;26574;52.486;13.348;2022-09-29T17:38:25;22.50;59.70
40852;DHT22;26574;52.486;13.348;2022-09-29T17:43:17;22.50;61.20
40852;DHT22;26574;52.486;13.348;2022-09-29T17:45:44;22.50;61.10
40852;DHT22;26574;52.486;13.348;2022-09-29T17:48:10;22.50;61.30
40852;DHT22;26574;52.486;13.348;2022-09-29T17:50:46;22.50;61.10
40852;DHT22;26574;52.486;13.348;2022-09-29T17:53:12;22.50;62.00
40852;DHT22;26574;52.486;13.348;2022-09-29T17:55:39;22.50;61.50
40852;DHT22;26574;52.486;13.348;2022-09-29T17:58:05;22.50;61.90
40852;DHT22;26574;52.486;13.348;2022-09-29T18:00:32;22.50;61.90
40852;DHT22;26574;52.486;13.348;2022-09-29T18:03:06;22.50;61.00
40852;DHT22;26574;52.486;13.348;2022-09-29T18:05:33;22.50;61.60
40852;DHT22;26574;52.486;13.348;2022-09-29T18:08:00;22.50;61.00
40852;DHT22;26574;52.486;13.348;2022-09-29T18:10:33;22.50;61.10
40852;DHT22;26574;52.486;13.348;2022-09-29T18:12:59;22.50;61.40
40852;DHT22;26574;52.486;13.348;2022-09-29T18:15:26;22.50;61.80
40852;DHT22;26574;52.486;13.348;2022-09-29T18:17:55;22.50;62.20
40852;DHT22;26574;52.486;13.348;2022-09-29T18:20:21;22.50;61.90
40852;DHT22;26574;52.486;13.348;2022-09-29T18:22:47;22.50;61.30
40852;DHT22;26574;52.486;13.348;2022-09-29T18:25:13;22.50;61.60
40852;DHT22;26574;52.486;13.348;2022-09-29T18:27:39;22.50;62.00
40852;DHT22;26574;52.486;13.348;2022-09-29T18:30:06;22.50;61.90
40852;DHT22;26574;52.486;13.348;2022-09-29T18:32:31;22.50;61.90
40852;DHT22;26574;52.486;13.348;2022-09-29T18:34:57;22.50;61.80
40852;DHT22;26574;52.486;13.348;2022-09-29T18:37:23;22.50;62.10
40852;DHT22;26574;52.486;13.348;2022-09-29T18:39:49;22.50;61.30
40852;DHT22;26574;52.486;13.348;2022-09-29T18:42:14;22.50;61.40
40852;DHT22;26574;52.486;13.348;2022-09-29T18:44:40;22.50;61.70
40852;DHT22;26574;52.486;13.348;2022-09-29T18:47:08;22.50;61.90
40852;DHT22;26574;52.486;13.348;2022-09-29T18:49:34;22.50;61.60
40852;DHT22;26574;52.486;13.348;2022-09-29T18:52:00;22.50;61.20
40852;DHT22;26574;52.486;13.348;2022-09-29T18:54:25;22.50;61.50